createdAt,value
2023-05-19T00:01:37.631Z,519.22
2023-05-19T00:04:07.028Z,543.70
2023-05-19T00:06:36.402Z,540.10
2023-05-19T00:09:07.943Z,518.20
2023-05-19T00:11:38.276Z,472.63
2023-05-19T00:14:09.453Z,487.38
2023-05-19T00:16:39.075Z,501.50
2023-05-19T00:19:10.146Z,497.08
2023-05-19T00:21:39.383Z,615.78
2023-05-19T00:24:09.556Z,520.60
2023-05-19T00:26:38.022Z,631.88
2023-05-19T00:29:06.558Z,552.83
2023-05-19T00:31:35.087Z,567.78
2023-05-19T00:34:03.555Z,546.60
2023-05-19T00:36:32.055Z,572.67
2023-05-19T00:39:00.441Z,560.28
2023-05-19T00:41:31.296Z,530.83
2023-05-19T00:43:59.891Z,606.30
2023-05-19T00:46:28.368Z,541.42
2023-05-19T00:48:56.806Z,560.67
2023-05-19T00:51:26.281Z,528.17
2023-05-19T00:53:55.482Z,571.30
2023-05-19T00:56:24.606Z,550.50
2023-05-19T00:58:54.623Z,645.95
2023-05-19T01:01:23.693Z,624.03
2023-05-19T01:03:52.536Z,649.10
2023-05-19T01:06:22.171Z,583.25
2023-05-19T01:08:50.747Z,572.25
2023-05-19T01:11:19.193Z,620.75
2023-05-19T01:13:47.870Z,650.22
2023-05-19T01:16:23.355Z,575.28
2023-05-19T01:18:57.649Z,541.70
2023-05-19T01:21:56.718Z,557.83
2023-05-19T01:24:46.997Z,579.60
2023-05-19T01:27:38.482Z,603.22
2023-05-19T01:30:30.069Z,565.80
2023-05-19T01:33:01.110Z,555.67
2023-05-19T01:35:30.417Z,551.42
2023-05-19T01:38:00.130Z,581.05
2023-05-19T01:40:29.552Z,508.08
2023-05-19T01:43:00.245Z,543.28
2023-05-19T01:45:32.044Z,633.05
2023-05-19T01:48:03.495Z,523.13
2023-05-19T01:50:33.303Z,575.17
2023-05-19T01:53:02.385Z,511.73
2023-05-19T01:55:31.064Z,539.10
2023-05-19T01:58:08.660Z,644.05
2023-05-19T02:00:48.035Z,563.95
2023-05-19T02:03:29.918Z,547.53
2023-05-19T02:06:04.693Z,539.15
2023-05-19T02:08:39.181Z,525.60
2023-05-19T02:13:39.620Z,599.80
2023-05-19T02:16:10.146Z,577.20
2023-05-19T02:18:38.624Z,576.28
2023-05-19T02:21:07.408Z,559.35
2023-05-19T02:23:35.908Z,582.17
2023-05-19T02:26:04.400Z,590.20
2023-05-19T02:28:32.834Z,611.13
2023-05-19T02:31:01.346Z,601.80
2023-05-19T02:33:31.520Z,559.80
2023-05-19T02:35:59.918Z,585.53
2023-05-19T02:38:28.356Z,609.53
2023-05-19T02:40:59.360Z,610.53
2023-05-19T02:43:30.509Z,569.25
2023-05-19T02:45:59.050Z,594.72
2023-05-19T02:48:27.525Z,575.42
2023-05-19T02:50:57.323Z,657.97
2023-05-19T02:53:25.697Z,572.63
2023-05-19T02:55:54.146Z,603.22
2023-05-19T02:58:22.977Z,606.33
2023-05-19T03:00:51.524Z,575.40
2023-05-19T03:03:20.150Z,581.72
2023-05-19T03:05:48.740Z,625.20
2023-05-19T03:08:19.657Z,557.63
2023-05-19T03:10:49.070Z,621.65
2023-05-19T03:13:17.917Z,679.88
2023-05-19T03:15:46.355Z,598.10
2023-05-19T03:18:14.804Z,608.10
2023-05-19T03:20:44.701Z,659.72
2023-05-19T03:23:13.097Z,630.45
2023-05-19T03:25:42.931Z,577.67
2023-05-19T03:28:11.493Z,619.38
2023-05-19T03:30:40.006Z,586.58
2023-05-19T03:33:08.482Z,588.15
2023-05-19T03:35:37.299Z,644.22
2023-05-19T03:38:05.681Z,667.22
2023-05-19T03:40:34.384Z,657.80
2023-05-19T03:43:04.321Z,621.83
2023-05-19T03:45:32.754Z,641.58
2023-05-19T03:48:01.151Z,656.90
2023-05-19T03:50:31.893Z,635.28
2023-05-19T03:53:00.579Z,612.42
2023-05-19T03:55:30.601Z,611.38
2023-05-19T03:57:58.986Z,651.20
2023-05-19T04:00:28.860Z,616.58
2023-05-19T04:02:57.406Z,653.28
2023-05-19T04:05:26.143Z,657.35
2023-05-19T04:07:54.550Z,664.15
2023-05-19T04:10:23.012Z,653.47
2023-05-19T04:12:51.436Z,659.17
2023-05-19T04:15:19.923Z,653.10
2023-05-19T04:17:50.024Z,658.67
2023-05-19T04:20:18.441Z,661.08
2023-05-19T04:22:47.075Z,658.10
2023-05-19T04:25:15.549Z,658.67
2023-05-19T04:27:43.956Z,671.45
2023-05-19T04:30:13.069Z,598.90
2023-05-19T04:32:41.565Z,656.55
2023-05-19T04:35:13.651Z,612.30
2023-05-19T04:37:45.879Z,627.53
2023-05-19T04:40:14.596Z,640.53
2023-05-19T04:42:45.804Z,661.63
2023-05-19T04:45:14.894Z,570.08
2023-05-19T04:47:44.346Z,585.38
2023-05-19T04:50:14.541Z,574.10
2023-05-19T04:52:45.535Z,684.60
2023-05-19T04:55:14.045Z,587.80
2023-05-19T04:57:42.804Z,547.72
2023-05-19T05:00:14.395Z,719.17
2023-05-19T05:02:43.514Z,578.20
2023-05-19T05:05:13.435Z,580.97
2023-05-19T05:07:41.805Z,531.03
2023-05-19T05:10:11.699Z,565.40
2023-05-19T05:12:40.707Z,568.80
2023-05-19T05:15:10.417Z,509.50
2023-05-19T05:17:39.298Z,539.95
2023-05-19T05:20:08.973Z,558.15
2023-05-19T05:22:39.684Z,544.42
2023-05-19T05:25:09.468Z,563.03
2023-05-19T05:27:37.852Z,538.65
2023-05-19T05:30:07.341Z,558.90
2023-05-19T05:32:36.031Z,553.47
2023-05-19T05:35:04.784Z,529.33
2023-05-19T05:37:33.225Z,658.88
2023-05-19T05:40:03.873Z,578.72
2023-05-19T05:42:32.289Z,517.50
2023-05-19T05:45:00.690Z,546.50
2023-05-19T05:47:29.702Z,558.53
2023-05-19T05:49:58.695Z,555.78
2023-05-19T05:52:32.162Z,578.72
2023-05-19T05:55:02.629Z,553.47
2023-05-19T05:57:31.565Z,540.55
2023-05-19T06:00:00.098Z,555.03
2023-05-19T06:02:28.710Z,520.75
2023-05-19T06:05:00.664Z,560.97
2023-05-19T06:07:29.287Z,530.58
2023-05-19T06:09:57.739Z,524.08
2023-05-19T06:12:27.500Z,509.35
2023-05-19T06:14:56.250Z,493.92
2023-05-19T06:17:24.862Z,478.30
2023-05-19T06:19:53.460Z,522.03
2023-05-19T06:22:22.094Z,479.40
2023-05-19T06:24:50.514Z,480.50
2023-05-19T06:27:19.094Z,469.33
2023-05-19T06:29:48.919Z,488.13
2023-05-19T06:32:17.556Z,501.10
2023-05-19T06:34:46.172Z,528.63
2023-05-19T06:37:17.078Z,568.15
2023-05-19T06:39:45.536Z,515.67
2023-05-19T06:42:14.150Z,617.08
2023-05-19T06:44:42.599Z,570.58
2023-05-19T06:47:12.562Z,635.55
2023-05-19T06:49:41.651Z,631.83
2023-05-19T06:52:14.234Z,638.40
2023-05-19T06:54:43.157Z,651.13
2023-05-19T06:57:11.655Z,683.67
2023-05-19T06:59:40.955Z,646.70
2023-05-19T07:02:11.063Z,586.10
2023-05-19T07:04:39.929Z,613.40
2023-05-19T07:07:08.971Z,642.72
2023-05-19T07:09:37.391Z,697.05
2023-05-19T07:12:06.416Z,631.95
2023-05-19T07:14:36.430Z,614.58
2023-05-19T07:17:05.223Z,616.13
2023-05-19T07:19:35.050Z,645.90
2023-05-19T07:22:03.531Z,758.45
2023-05-19T07:24:34.297Z,637.47
2023-05-19T07:27:02.806Z,634.85
2023-05-19T07:29:35.520Z,619.40
2023-05-19T07:32:04.007Z,612.00
2023-05-19T07:34:33.910Z,604.50
2023-05-19T07:37:03.376Z,666.88
2023-05-19T07:39:32.400Z,692.15
2023-05-19T07:42:00.953Z,583.00
2023-05-19T07:44:31.476Z,603.15
2023-05-19T07:47:00.222Z,632.78
2023-05-19T07:49:29.424Z,597.92
2023-05-19T07:51:59.535Z,619.50
2023-05-19T07:54:28.018Z,629.50
2023-05-19T07:56:56.517Z,581.30
2023-05-19T07:59:25.365Z,729.17
2023-05-19T08:01:53.817Z,621.35
2023-05-19T08:04:22.223Z,614.40
2023-05-19T08:06:52.285Z,704.92
2023-05-19T08:09:22.242Z,606.22
2023-05-19T08:11:50.985Z,633.08
2023-05-19T08:14:20.446Z,667.03
2023-05-19T08:16:48.887Z,607.08
2023-05-19T08:19:17.431Z,634.05
2023-05-19T08:21:46.028Z,576.03
2023-05-19T08:24:14.610Z,625.42
2023-05-19T08:26:45.580Z,633.13
2023-05-19T08:29:20.605Z,656.15
2023-05-19T08:31:49.547Z,616.50
2023-05-19T08:34:18.114Z,585.53
2023-05-19T08:36:47.676Z,615.65
2023-05-19T08:39:17.611Z,641.22
2023-05-19T08:41:47.737Z,628.67
2023-05-19T08:44:18.281Z,581.58
2023-05-19T08:46:48.640Z,582.22
2023-05-19T08:49:22.196Z,566.58
2023-05-19T08:54:22.608Z,561.38
2023-05-19T08:56:52.566Z,584.45
2023-05-19T08:59:22.180Z,660.38
2023-05-19T09:01:51.187Z,639.13
2023-05-19T09:04:20.159Z,642.40
2023-05-19T09:06:50.325Z,768.97
2023-05-19T09:09:22.234Z,594.83
2023-05-19T09:11:52.185Z,622.78
2023-05-19T09:14:20.868Z,628.60
2023-05-19T09:16:51.133Z,616.22
2023-05-19T09:19:20.990Z,631.20
2023-05-19T09:22:00.977Z,578.33
2023-05-19T09:24:30.329Z,606.65
2023-05-19T09:27:00.708Z,653.72
2023-05-19T09:29:29.351Z,703.95
2023-05-19T09:32:01.008Z,619.10
2023-05-19T09:34:29.882Z,640.33
2023-05-19T09:36:59.746Z,607.40
2023-05-19T09:39:28.999Z,660.97
2023-05-19T09:41:59.511Z,636.55
2023-05-19T09:44:29.530Z,690.97
2023-05-19T09:47:00.979Z,622.10
2023-05-19T09:49:31.481Z,611.13
2023-05-19T09:52:01.134Z,632.42
2023-05-19T09:54:31.241Z,641.17
2023-05-19T09:57:08.547Z,710.53
2023-05-19T09:59:38.962Z,747.20
2023-05-19T10:02:08.223Z,651.22
2023-05-19T10:04:36.980Z,617.33
2023-05-19T10:07:06.368Z,694.65
2023-05-19T10:09:35.863Z,632.08
2023-05-19T10:12:06.401Z,659.38
2023-05-19T10:14:34.867Z,618.83
2023-05-19T10:17:03.335Z,585.08
2023-05-19T10:19:31.826Z,621.78
2023-05-19T10:22:00.338Z,685.15
2023-05-19T10:24:28.793Z,629.80
2023-05-19T10:27:02.592Z,654.47
2023-05-19T10:29:34.599Z,612.50
2023-05-19T10:32:06.327Z,650.25
2023-05-19T10:35:13.052Z,646.03
2023-05-19T10:37:47.722Z,634.35
2023-05-19T10:40:23.193Z,797.47
2023-05-19T10:43:04.058Z,620.00
2023-05-19T10:45:37.732Z,710.08
2023-05-19T10:48:06.550Z,601.13
2023-05-19T10:50:38.722Z,612.33
2023-05-19T10:53:08.525Z,622.75
2023-05-19T10:55:59.026Z,669.90
2023-05-19T10:58:51.762Z,624.00
2023-05-19T11:01:32.473Z,727.75
2023-05-19T11:04:07.264Z,673.85
2023-05-19T11:06:48.400Z,593.88
2023-05-19T11:09:22.588Z,621.97
2023-05-19T11:11:57.435Z,625.15
2023-05-19T11:14:28.398Z,638.85
2023-05-19T11:17:00.967Z,690.22
2023-05-19T11:19:32.151Z,658.97
2023-05-19T11:22:11.035Z,640.55
2023-05-19T11:24:40.974Z,631.20
2023-05-19T11:27:26.107Z,701.05
2023-05-19T11:29:55.696Z,635.13
2023-05-19T11:32:29.045Z,612.50
2023-05-19T11:34:58.159Z,683.03
2023-05-19T11:37:26.761Z,602.75
2023-05-19T11:39:55.164Z,632.28
2023-05-19T11:42:23.708Z,691.67
2023-05-19T11:44:52.226Z,624.00
2023-05-19T11:47:21.469Z,612.90
2023-05-19T11:49:51.948Z,597.65
2023-05-19T11:52:23.313Z,756.88
2023-05-19T11:54:55.494Z,673.65
2023-05-19T11:57:23.940Z,620.35
2023-05-19T11:59:53.693Z,621.65
2023-05-19T12:02:24.862Z,610.80
2023-05-19T12:05:02.599Z,624.03
2023-05-19T12:07:31.030Z,638.50
2023-05-19T12:10:02.758Z,629.83
2023-05-19T12:12:32.061Z,685.00
2023-05-19T12:15:00.496Z,596.83
2023-05-19T12:17:29.736Z,646.90
2023-05-19T12:20:05.174Z,619.08
2023-05-19T12:22:35.367Z,775.97
2023-05-19T12:25:05.230Z,625.17
2023-05-19T12:27:38.448Z,664.95
2023-05-19T12:30:08.348Z,678.45
2023-05-19T12:32:37.154Z,605.90
2023-05-19T12:35:08.174Z,608.22
2023-05-19T12:37:36.659Z,595.75
2023-05-19T12:40:07.158Z,635.22
2023-05-19T12:42:35.883Z,611.42
2023-05-19T12:45:06.131Z,628.03
2023-05-19T12:47:35.889Z,619.05
2023-05-19T12:50:09.244Z,675.28
2023-05-19T12:52:45.254Z,641.35
2023-05-19T12:55:14.426Z,577.38
2023-05-19T12:57:44.469Z,634.33
2023-05-19T13:00:17.548Z,640.63
2023-05-19T13:03:00.682Z,648.15
2023-05-19T13:05:32.247Z,775.88
2023-05-19T13:08:02.696Z,667.45
2023-05-19T13:10:31.762Z,743.55
2023-05-19T13:13:01.671Z,658.97
2023-05-19T13:15:31.761Z,644.58
2023-05-19T13:20:55.473Z,648.17
2023-05-19T13:23:24.099Z,664.78
2023-05-19T13:25:52.760Z,667.35
2023-05-19T13:28:21.174Z,700.78
2023-05-19T13:30:49.795Z,671.40
2023-05-19T13:33:18.320Z,661.80
2023-05-19T13:35:46.736Z,635.88
2023-05-19T13:38:16.569Z,724.15
2023-05-19T13:40:46.194Z,708.03
2023-05-19T13:43:14.609Z,903.25
2023-05-19T13:45:44.489Z,650.90
2023-05-19T13:48:13.138Z,689.05
2023-05-19T13:50:41.759Z,676.40
2023-05-19T13:53:11.496Z,771.22
2023-05-19T13:55:41.449Z,662.22
2023-05-19T13:58:11.058Z,719.28
2023-05-19T14:00:39.745Z,622.17
2023-05-19T14:03:08.667Z,675.92
2023-05-19T14:05:37.384Z,617.95
2023-05-19T14:08:06.763Z,629.65
2023-05-19T14:10:35.529Z,622.17
2023-05-19T14:13:30.410Z,672.88
2023-05-19T14:15:54.251Z,585.85
2023-05-19T14:18:22.668Z,629.17
2023-05-19T14:20:51.155Z,674.20
2023-05-19T14:23:21.522Z,642.17
2023-05-19T14:25:49.980Z,669.28
2023-05-19T14:28:19.772Z,623.72
2023-05-19T14:30:48.627Z,633.08
2023-05-19T14:33:17.354Z,669.88
2023-05-19T14:35:45.928Z,637.63
2023-05-19T14:38:14.479Z,748.97
2023-05-19T14:40:43.182Z,815.45
2023-05-19T14:43:11.880Z,626.22
2023-05-19T14:45:42.419Z,644.25
2023-05-19T14:48:11.791Z,640.42
2023-05-19T14:50:40.661Z,643.15
2023-05-19T14:53:09.371Z,626.55
2023-05-19T14:55:37.775Z,689.90
2023-05-19T14:58:15.949Z,634.53
2023-05-19T15:00:59.512Z,638.25
2023-05-19T15:03:28.207Z,619.67
2023-05-19T15:05:56.652Z,628.03
2023-05-19T15:08:25.033Z,651.45
2023-05-19T15:10:53.950Z,582.50
2023-05-19T15:13:22.343Z,633.45
2023-05-19T15:15:52.048Z,671.58
2023-05-19T15:18:26.052Z,648.85
2023-05-19T15:20:54.608Z,634.53
2023-05-19T15:23:22.986Z,697.17
2023-05-19T15:25:53.192Z,661.08
2023-05-19T15:28:21.746Z,666.28
2023-05-19T15:30:50.215Z,689.63
2023-05-19T15:33:18.845Z,792.03
2023-05-19T15:35:51.560Z,697.55
2023-05-19T15:38:20.506Z,654.42
2023-05-19T15:40:48.948Z,652.30
2023-05-19T15:43:17.547Z,625.83
2023-05-19T15:45:46.076Z,798.97
2023-05-19T15:48:14.504Z,652.50
2023-05-19T15:50:42.900Z,640.90
2023-05-19T15:53:12.634Z,782.35
2023-05-19T15:55:41.048Z,645.85
2023-05-19T15:58:09.775Z,737.38
2023-05-19T16:00:38.139Z,704.55
2023-05-19T16:03:06.651Z,661.40
2023-05-19T16:05:35.217Z,628.17
2023-05-19T16:08:03.596Z,653.92
2023-05-19T16:10:33.832Z,708.10
2023-05-19T16:13:02.496Z,635.28
2023-05-19T16:15:30.948Z,673.63
2023-05-19T16:17:59.924Z,645.90
2023-05-19T16:20:29.844Z,785.50
2023-05-19T16:22:59.859Z,662.75
2023-05-19T16:25:28.370Z,756.90
2023-05-19T16:27:58.212Z,670.78
2023-05-19T16:30:28.006Z,676.42
2023-05-19T16:32:56.438Z,690.63
2023-05-19T16:35:25.105Z,675.17
2023-05-19T16:37:53.571Z,727.83
2023-05-19T16:40:21.991Z,713.83
2023-05-19T16:42:50.555Z,677.53
2023-05-19T16:45:20.472Z,658.55
2023-05-19T16:47:49.149Z,692.88
2023-05-19T16:50:17.821Z,676.33
2023-05-19T16:52:46.786Z,723.50
2023-05-19T16:55:19.490Z,676.40
2023-05-19T16:57:48.128Z,683.92
2023-05-19T17:00:17.417Z,681.63
2023-05-19T17:02:47.606Z,684.42
2023-05-19T17:05:16.352Z,676.10
2023-05-19T17:07:44.933Z,687.88
2023-05-19T17:10:14.565Z,673.50
2023-05-19T17:12:43.072Z,722.03
2023-05-19T17:15:12.135Z,700.58
2023-05-19T17:17:40.674Z,785.30
2023-05-19T17:20:12.130Z,673.75
2023-05-19T17:22:40.575Z,684.80
2023-05-19T17:25:10.072Z,668.00
2023-05-19T17:27:38.884Z,699.42
2023-05-19T17:30:08.829Z,722.13
2023-05-19T17:32:39.470Z,725.42
2023-05-19T17:35:10.469Z,664.50
2023-05-19T17:37:39.042Z,648.92
2023-05-19T17:40:08.870Z,664.17
2023-05-19T17:42:37.278Z,739.45
2023-05-19T17:45:07.566Z,661.78
2023-05-19T17:47:36.203Z,653.60
2023-05-19T17:50:04.883Z,656.35
2023-05-19T17:52:35.666Z,687.55
2023-05-19T17:55:04.640Z,681.42
2023-05-19T17:57:33.972Z,676.65
2023-05-19T18:00:03.841Z,788.35
2023-05-19T18:02:32.845Z,709.67
2023-05-19T18:05:01.939Z,679.00
2023-05-19T18:07:33.660Z,649.13
2023-05-19T18:10:06.552Z,671.58
2023-05-19T18:12:34.964Z,669.15
2023-05-19T18:15:03.437Z,670.60
2023-05-19T18:17:31.935Z,664.58
2023-05-19T18:20:00.910Z,868.58
2023-05-19T18:22:29.436Z,671.08
2023-05-19T18:24:58.340Z,664.17
2023-05-19T18:27:28.868Z,713.65
2023-05-19T18:29:57.445Z,655.63
2023-05-19T18:32:25.998Z,716.75
2023-05-19T18:34:54.437Z,827.13
2023-05-19T18:37:22.987Z,711.42
2023-05-19T18:39:51.329Z,777.72
2023-05-19T18:42:19.771Z,733.40
2023-05-19T18:44:50.690Z,698.08
2023-05-19T18:47:19.846Z,724.00
2023-05-19T18:49:48.268Z,695.78
2023-05-19T18:52:16.928Z,715.90
2023-05-19T18:54:46.988Z,765.40
2023-05-19T18:57:15.594Z,719.03
2023-05-19T18:59:44.246Z,693.50
2023-05-19T19:02:14.003Z,732.13
2023-05-19T19:04:42.456Z,690.72
2023-05-19T19:07:10.894Z,707.95
2023-05-19T19:09:39.589Z,715.55
2023-05-19T19:12:08.234Z,696.78
2023-05-19T19:14:37.239Z,691.08
2023-05-19T19:17:06.071Z,686.47
2023-05-19T19:19:36.065Z,687.72
2023-05-19T19:22:04.755Z,692.15
2023-05-19T19:24:33.248Z,685.72
2023-05-19T19:27:02.528Z,666.70
2023-05-19T19:29:30.964Z,662.28
2023-05-19T19:31:59.537Z,707.70
2023-05-19T19:34:28.341Z,656.97
2023-05-19T19:36:58.117Z,670.55
2023-05-19T19:39:26.642Z,704.42
2023-05-19T19:41:55.374Z,688.22
2023-05-19T19:44:23.977Z,726.60
2023-05-19T19:46:52.524Z,788.60
2023-05-19T19:49:21.053Z,698.63
2023-05-19T19:51:49.403Z,817.80
2023-05-19T19:54:19.762Z,700.90
2023-05-19T19:56:48.203Z,688.70
2023-05-19T19:59:16.888Z,692.10
2023-05-19T20:01:45.330Z,688.90
2023-05-19T20:04:15.376Z,694.65
2023-05-19T20:06:45.674Z,684.30
2023-05-19T20:09:14.069Z,704.53
2023-05-19T20:11:43.909Z,692.00
2023-05-19T20:14:12.309Z,704.47
2023-05-19T20:16:41.604Z,718.85
2023-05-19T20:19:12.031Z,712.10
2023-05-19T20:21:40.451Z,719.67
2023-05-19T20:24:08.988Z,714.30
2023-05-19T20:26:37.455Z,731.90
2023-05-19T20:29:07.395Z,723.95
2023-05-19T20:31:35.759Z,717.72
2023-05-19T20:34:04.278Z,712.08
2023-05-19T20:36:32.958Z,671.67
2023-05-19T20:39:02.332Z,712.83
2023-05-19T20:41:31.282Z,700.15
2023-05-19T20:43:59.725Z,725.70
2023-05-19T20:46:29.648Z,697.88
2023-05-19T20:48:58.137Z,709.15
2023-05-19T20:51:27.273Z,698.58
2023-05-19T20:53:55.749Z,701.30
2023-05-19T20:56:24.173Z,713.28
2023-05-19T20:58:52.569Z,672.10
2023-05-19T21:01:21.012Z,656.28
2023-05-19T21:03:51.139Z,693.35
2023-05-19T21:06:19.588Z,669.88
2023-05-19T21:08:48.039Z,727.65
2023-05-19T21:11:16.650Z,635.72
2023-05-19T21:13:45.103Z,700.00
2023-05-19T21:16:13.511Z,702.25
2023-05-19T21:18:41.945Z,683.55
2023-05-19T21:21:11.890Z,669.38
2023-05-19T21:23:40.252Z,694.17
2023-05-19T21:26:08.638Z,698.63
2023-05-19T21:28:37.047Z,683.50
2023-05-19T21:31:06.054Z,698.60
2023-05-19T21:33:34.667Z,669.47
2023-05-19T21:36:03.098Z,721.53
2023-05-19T21:38:32.894Z,689.15
2023-05-19T21:41:02.174Z,687.42
2023-05-19T21:43:30.559Z,647.90
2023-05-19T21:45:59.102Z,707.42
2023-05-19T21:48:27.592Z,700.72
2023-05-19T21:50:57.351Z,709.13
2023-05-19T21:53:26.171Z,660.67
2023-05-19T21:55:56.194Z,652.10
2023-05-19T21:58:25.158Z,805.55
2023-05-19T22:00:54.408Z,717.97
2023-05-19T22:03:23.679Z,690.45
2023-05-19T22:05:53.044Z,698.40
2023-05-19T22:08:22.362Z,670.50
2023-05-19T22:10:51.853Z,698.80
2023-05-19T22:13:22.117Z,696.08
2023-05-19T22:15:50.915Z,680.80
2023-05-19T22:18:19.353Z,669.00
2023-05-19T22:20:48.070Z,668.45
2023-05-19T22:23:16.719Z,699.38
2023-05-19T22:25:45.076Z,682.47
2023-05-19T22:28:13.497Z,680.38
2023-05-19T22:30:44.039Z,688.50
2023-05-19T22:33:13.109Z,687.13
2023-05-19T22:35:41.606Z,682.15
2023-05-19T22:38:10.709Z,684.88
2023-05-19T22:40:39.591Z,681.28
2023-05-19T22:43:08.121Z,697.85
2023-05-19T22:45:37.248Z,690.97
2023-05-19T22:48:07.558Z,676.22
2023-05-19T22:50:36.064Z,677.15
2023-05-19T22:53:04.434Z,666.85
2023-05-19T22:55:33.037Z,669.15
2023-05-19T22:58:01.610Z,670.40
2023-05-19T23:00:30.048Z,703.63
2023-05-19T23:02:58.900Z,664.25
2023-05-19T23:05:28.706Z,687.13
2023-05-19T23:07:57.098Z,679.10
2023-05-19T23:10:25.575Z,670.15
2023-05-19T23:12:53.955Z,690.00
2023-05-19T23:15:22.375Z,683.17
2023-05-19T23:17:51.070Z,663.97
2023-05-19T23:20:19.595Z,693.30
2023-05-19T23:22:49.381Z,698.08
2023-05-19T23:25:17.802Z,687.65
2023-05-19T23:27:46.598Z,690.35
2023-05-19T23:30:15.001Z,672.45
2023-05-19T23:32:43.426Z,661.80
2023-05-19T23:35:13.417Z,675.38
2023-05-19T23:37:41.956Z,662.50
2023-05-19T23:40:12.461Z,688.38
2023-05-19T23:42:41.513Z,680.58
2023-05-19T23:45:10.685Z,672.25
2023-05-19T23:47:39.213Z,669.83
2023-05-19T23:50:08.217Z,676.38
2023-05-19T23:52:36.660Z,668.35
2023-05-19T23:55:05.852Z,686.97
2023-05-19T23:57:35.594Z,661.97
